createdAt,value
2018-07-16T00:00:14.744Z,21.60
2018-07-16T00:02:43.168Z,22.13
2018-07-16T00:05:11.587Z,23.83
2018-07-16T00:07:39.883Z,20.70
2018-07-16T00:10:08.260Z,18.33
2018-07-16T00:12:36.599Z,19.23
2018-07-16T00:15:04.995Z,17.43
2018-07-16T00:17:33.696Z,17.83
2018-07-16T00:20:02.348Z,18.73
2018-07-16T00:22:30.641Z,14.10
2018-07-16T00:24:58.977Z,11.73
2018-07-16T00:27:27.268Z,13.87
2018-07-16T00:29:55.580Z,15.67
2018-07-16T00:32:23.871Z,18.13
2018-07-16T00:34:52.244Z,14.27
2018-07-16T00:37:20.606Z,10.83
2018-07-16T00:39:48.930Z,16.57
2018-07-16T00:42:17.232Z,16.27
2018-07-16T00:44:45.560Z,15.57
2018-07-16T00:47:13.860Z,15.73
2018-07-16T00:49:42.172Z,13.27
2018-07-16T00:52:10.487Z,12.87
2018-07-16T00:54:38.800Z,14.10
2018-07-16T00:57:07.109Z,20.33
2018-07-16T00:59:35.450Z,14.87
2018-07-16T01:02:03.881Z,14.40
2018-07-16T01:04:32.283Z,13.57
2018-07-16T01:07:00.605Z,12.83
2018-07-16T01:09:28.948Z,12.13
2018-07-16T01:11:57.300Z,13.90
2018-07-16T01:14:25.724Z,14.13
2018-07-16T01:16:54.032Z,12.90
2018-07-16T01:19:22.393Z,12.60
2018-07-16T01:21:50.785Z,20.50
2018-07-16T01:24:19.129Z,16.50
2018-07-16T01:26:47.436Z,17.17
2018-07-16T01:29:15.756Z,12.37
2018-07-16T01:31:44.089Z,13.83
2018-07-16T01:34:12.412Z,13.73
2018-07-16T01:36:40.736Z,13.40
2018-07-16T01:39:09.039Z,11.67
2018-07-16T01:41:37.368Z,13.57
2018-07-16T01:44:05.678Z,11.37
2018-07-16T01:46:33.983Z,12.70
2018-07-16T01:49:02.294Z,12.23
2018-07-16T01:51:30.604Z,11.30
2018-07-16T01:53:58.932Z,13.23
2018-07-16T01:56:27.301Z,15.33
2018-07-16T01:58:55.640Z,11.70
2018-07-16T02:01:23.969Z,14.17
2018-07-16T02:03:52.280Z,12.17
2018-07-16T02:06:20.603Z,11.57
2018-07-16T02:08:48.925Z,13.70
2018-07-16T02:11:17.253Z,13.67
2018-07-16T02:13:45.761Z,15.23
2018-07-16T02:16:14.112Z,16.50
2018-07-16T02:18:42.416Z,12.23
2018-07-16T02:21:10.767Z,13.10
2018-07-16T02:23:39.089Z,11.87
2018-07-16T02:26:07.400Z,11.63
2018-07-16T02:28:35.689Z,10.83
2018-07-16T02:31:04.043Z,12.90
2018-07-16T02:33:32.360Z,15.13
2018-07-16T02:36:00.708Z,12.77
2018-07-16T02:38:29.009Z,11.00
2018-07-16T02:40:57.349Z,13.00
2018-07-16T02:43:25.665Z,13.83
2018-07-16T02:45:54.006Z,14.27
2018-07-16T02:48:22.431Z,10.90
2018-07-16T02:50:50.789Z,11.43
2018-07-16T02:53:19.097Z,12.13
2018-07-16T02:55:47.408Z,13.50
2018-07-16T02:58:15.720Z,12.10
2018-07-16T03:00:44.060Z,11.80
2018-07-16T03:03:12.356Z,11.40
2018-07-16T03:05:40.669Z,12.37
2018-07-16T03:08:08.977Z,12.10
2018-07-16T03:10:37.298Z,11.70
2018-07-16T03:13:06.334Z,12.63
2018-07-16T03:15:34.662Z,10.63
2018-07-16T03:18:03.005Z,13.33
2018-07-16T03:20:31.288Z,13.93
2018-07-16T03:22:59.589Z,13.17
2018-07-16T03:25:27.921Z,11.77
2018-07-16T03:27:56.220Z,13.83
2018-07-16T03:30:24.704Z,14.63
2018-07-16T03:32:53.025Z,14.40
2018-07-16T03:35:21.346Z,15.13
2018-07-16T03:37:49.688Z,16.67
2018-07-16T03:40:17.984Z,17.50
2018-07-16T03:42:46.301Z,17.53
2018-07-16T03:45:14.601Z,13.43
2018-07-16T03:47:42.944Z,14.40
2018-07-16T03:50:11.297Z,16.03
2018-07-16T03:52:39.630Z,14.10
2018-07-16T03:55:08.183Z,14.20
2018-07-16T03:57:36.492Z,15.63
2018-07-16T04:00:04.813Z,20.17
2018-07-16T04:02:33.190Z,16.13
2018-07-16T04:05:01.485Z,13.07
2018-07-16T04:07:29.845Z,11.93
2018-07-16T04:09:58.151Z,12.67
2018-07-16T04:12:26.464Z,16.30
2018-07-16T04:14:54.765Z,14.33
2018-07-16T04:17:23.088Z,14.77
2018-07-16T04:19:51.428Z,14.50
2018-07-16T04:22:19.753Z,14.73
2018-07-16T04:24:48.043Z,15.53
2018-07-16T04:27:16.392Z,18.17
2018-07-16T04:29:44.719Z,16.33
2018-07-16T04:32:13.085Z,16.87
2018-07-16T04:34:41.680Z,19.53
2018-07-16T04:37:10.033Z,23.37
2018-07-16T04:39:38.339Z,15.87
2018-07-16T04:42:06.789Z,19.67
2018-07-16T04:44:35.161Z,17.73
2018-07-16T04:47:03.491Z,19.60
2018-07-16T04:49:31.799Z,20.80
2018-07-16T04:52:00.113Z,21.10
2018-07-16T04:54:28.458Z,15.07
2018-07-16T04:59:31.441Z,20.03
2018-07-16T05:01:59.757Z,22.03
2018-07-16T05:04:28.041Z,20.77
2018-07-16T05:06:56.376Z,20.77
2018-07-16T05:09:24.675Z,22.97
2018-07-16T05:11:52.991Z,18.60
2018-07-16T05:14:21.310Z,14.50
2018-07-16T05:16:49.638Z,22.47
2018-07-16T05:19:17.940Z,27.10
2018-07-16T05:21:46.245Z,21.10
2018-07-16T05:24:14.550Z,22.13
2018-07-16T05:26:42.897Z,26.43
2018-07-16T05:29:11.192Z,26.03
2018-07-16T05:31:39.584Z,24.13
2018-07-16T05:34:07.868Z,25.23
2018-07-16T05:36:36.196Z,21.40
2018-07-16T05:39:05.502Z,59.37
2018-07-16T05:41:33.813Z,29.67
2018-07-16T05:44:02.137Z,24.80
2018-07-16T05:46:30.434Z,23.20
2018-07-16T05:48:58.745Z,21.93
2018-07-16T05:51:27.125Z,19.90
2018-07-16T05:53:55.457Z,17.57
2018-07-16T05:56:23.784Z,16.67
2018-07-16T05:58:52.121Z,15.43
2018-07-16T06:01:20.634Z,12.53
2018-07-16T06:03:48.959Z,12.57
2018-07-16T06:06:17.289Z,12.83
2018-07-16T06:08:45.638Z,13.90
2018-07-16T06:11:13.965Z,12.93
2018-07-16T06:13:42.296Z,13.97
2018-07-16T06:16:10.602Z,19.73
2018-07-16T06:18:38.937Z,14.67
2018-07-16T06:21:08.047Z,14.20
2018-07-16T06:23:36.477Z,19.70
2018-07-16T06:26:04.870Z,14.10
2018-07-16T06:28:33.309Z,15.17
2018-07-16T06:31:01.649Z,14.10
2018-07-16T06:33:30.094Z,15.37
2018-07-16T06:35:58.450Z,13.93
2018-07-16T06:38:26.823Z,14.13
2018-07-16T06:40:55.334Z,13.90
2018-07-16T06:43:23.560Z,15.07
2018-07-16T06:45:51.933Z,14.43
2018-07-16T06:48:20.323Z,14.40
2018-07-16T06:50:48.832Z,15.20
2018-07-16T06:53:17.217Z,14.50
2018-07-16T06:55:45.906Z,13.70
2018-07-16T06:58:14.266Z,14.30
2018-07-16T07:00:42.594Z,12.00
2018-07-16T07:03:10.981Z,8.47
2018-07-16T07:05:40.430Z,10.30
2018-07-16T07:08:08.879Z,8.50
2018-07-16T07:10:37.237Z,11.20
2018-07-16T07:13:05.634Z,9.10
2018-07-16T07:15:34.005Z,9.10
2018-07-16T07:18:02.371Z,10.20
2018-07-16T07:20:30.705Z,9.50
2018-07-16T07:22:59.012Z,8.63
2018-07-16T07:25:27.354Z,9.90
2018-07-16T07:27:55.650Z,10.30
2018-07-16T07:30:23.961Z,8.77
2018-07-16T07:32:52.280Z,6.80
2018-07-16T07:35:20.690Z,8.20
2018-07-16T07:37:49.016Z,7.13
2018-07-16T07:40:17.330Z,7.67
2018-07-16T07:42:45.807Z,7.00
2018-07-16T07:45:14.094Z,7.53
2018-07-16T07:47:42.454Z,7.13
2018-07-16T07:50:10.729Z,6.57
2018-07-16T07:52:39.024Z,6.33
2018-07-16T07:55:07.896Z,7.03
2018-07-16T07:57:35.799Z,6.27
2018-07-16T08:00:05.156Z,5.83
2018-07-16T08:02:33.462Z,5.33
2018-07-16T08:05:02.140Z,5.83
2018-07-16T08:07:30.424Z,5.57
2018-07-16T08:09:58.754Z,5.50
2018-07-16T08:12:27.199Z,5.17
2018-07-16T08:14:55.514Z,6.00
2018-07-16T08:17:23.847Z,5.97
2018-07-16T08:19:52.204Z,5.60
2018-07-16T08:22:20.633Z,5.10
2018-07-16T08:24:48.957Z,5.77
2018-07-16T08:27:17.265Z,4.97
2018-07-16T08:29:45.680Z,6.07
2018-07-16T08:32:14.020Z,5.73
2018-07-16T08:34:42.369Z,4.60
2018-07-16T08:37:10.708Z,5.07
2018-07-16T08:39:39.058Z,5.17
2018-07-16T08:42:07.395Z,4.50
2018-07-16T08:44:36.031Z,5.43
2018-07-16T08:47:04.370Z,6.17
2018-07-16T08:49:32.713Z,5.40
2018-07-16T08:52:01.029Z,3.87
2018-07-16T08:54:29.369Z,4.97
2018-07-16T08:56:57.657Z,3.20
2018-07-16T08:59:25.984Z,3.37
2018-07-16T09:01:54.276Z,3.33
2018-07-16T09:04:22.610Z,3.30
2018-07-16T09:06:50.896Z,3.37
2018-07-16T09:09:19.213Z,2.60
2018-07-16T09:11:47.522Z,2.33
2018-07-16T09:14:15.844Z,2.40
2018-07-16T09:16:44.160Z,2.60
2018-07-16T09:19:12.477Z,2.60
2018-07-16T09:21:40.801Z,2.10
2018-07-16T09:24:09.164Z,3.10
2018-07-16T09:26:37.513Z,1.80
2018-07-16T09:29:05.826Z,3.53
2018-07-16T09:31:34.125Z,2.30
2018-07-16T09:34:02.460Z,2.37
2018-07-16T09:36:30.796Z,2.67
2018-07-16T09:38:59.188Z,4.50
2018-07-16T09:41:27.476Z,2.47
2018-07-16T09:43:55.804Z,2.93
2018-07-16T09:46:24.117Z,4.63
2018-07-16T09:48:52.433Z,2.80
2018-07-16T09:51:20.813Z,3.20
2018-07-16T09:53:49.092Z,2.77
2018-07-16T09:56:17.389Z,4.13
2018-07-16T09:58:45.684Z,2.73
2018-07-16T10:01:19.377Z,2.77
2018-07-16T10:03:47.757Z,2.37
2018-07-16T10:06:16.095Z,2.57
2018-07-16T10:08:44.417Z,2.47
2018-07-16T10:11:12.733Z,3.03
2018-07-16T10:13:41.036Z,2.60
2018-07-16T10:16:09.388Z,2.30
2018-07-16T10:18:37.684Z,2.23
2018-07-16T10:21:06.230Z,2.80
2018-07-16T10:23:34.539Z,2.43
2018-07-16T10:26:02.926Z,2.50
2018-07-16T10:28:31.221Z,2.77
2018-07-16T10:30:59.577Z,2.90
2018-07-16T10:33:27.873Z,4.53
2018-07-16T10:35:56.208Z,6.33
2018-07-16T10:38:24.488Z,2.53
2018-07-16T10:40:52.837Z,9.00
2018-07-16T10:43:21.168Z,3.37
2018-07-16T10:45:49.492Z,2.53
2018-07-16T10:48:17.802Z,4.87
2018-07-16T10:50:46.310Z,2.33
2018-07-16T10:53:14.600Z,2.50
2018-07-16T10:55:42.974Z,2.30
2018-07-16T10:58:11.345Z,2.57
2018-07-16T11:00:39.672Z,3.63
2018-07-16T11:03:08.039Z,2.40
2018-07-16T11:05:36.349Z,2.50
2018-07-16T11:08:04.679Z,2.27
2018-07-16T11:10:33.005Z,2.50
2018-07-16T11:13:01.328Z,2.42
2018-07-16T11:15:29.652Z,2.90
2018-07-16T11:17:57.900Z,3.05
2018-07-16T11:20:26.239Z,2.70
2018-07-16T11:22:54.558Z,2.47
2018-07-16T11:25:22.913Z,2.77
2018-07-16T11:27:51.212Z,2.25
2018-07-16T11:30:19.524Z,2.58
2018-07-16T11:32:47.839Z,2.50
2018-07-16T11:35:16.238Z,2.37
2018-07-16T11:37:44.489Z,2.15
2018-07-16T11:40:12.825Z,2.37
2018-07-16T11:42:41.128Z,2.10
2018-07-16T11:45:09.452Z,2.10
2018-07-16T11:47:37.777Z,2.00
2018-07-16T11:50:06.098Z,2.00
2018-07-16T11:52:34.413Z,2.17
2018-07-16T11:55:02.713Z,2.45
2018-07-16T11:57:31.041Z,2.58
2018-07-16T11:59:59.330Z,2.33
2018-07-16T12:02:27.641Z,2.25
2018-07-16T12:04:55.944Z,2.42
2018-07-16T12:07:24.288Z,2.60
2018-07-16T12:09:52.613Z,2.17
2018-07-16T12:12:21.034Z,2.15
2018-07-16T12:14:49.265Z,2.20
2018-07-16T12:17:17.609Z,2.00
2018-07-16T12:19:45.941Z,2.02
2018-07-16T12:22:14.265Z,2.27
2018-07-16T12:24:42.761Z,1.80
2018-07-16T12:27:11.081Z,2.33
2018-07-16T12:29:39.745Z,2.27
2018-07-16T12:32:08.084Z,2.15
2018-07-16T12:34:36.435Z,2.75
2018-07-16T12:37:04.881Z,2.37
2018-07-16T12:39:33.173Z,2.33
2018-07-16T12:42:01.216Z,2.30
2018-07-16T12:44:29.558Z,2.20
2018-07-16T12:46:57.972Z,2.27
2018-07-16T12:49:26.253Z,2.15
2018-07-16T12:51:54.583Z,2.37
2018-07-16T12:54:22.897Z,2.27
2018-07-16T12:56:51.221Z,2.10
2018-07-16T12:59:19.520Z,2.17
2018-07-16T13:01:47.846Z,2.20
2018-07-16T13:04:16.193Z,2.17
2018-07-16T13:06:44.517Z,2.60
2018-07-16T13:09:12.817Z,2.30
2018-07-16T13:11:41.125Z,2.30
2018-07-16T13:14:09.436Z,2.50
2018-07-16T13:16:37.777Z,2.30
2018-07-16T13:19:06.944Z,2.50
2018-07-16T13:21:35.273Z,2.63
2018-07-16T13:24:03.597Z,2.47
2018-07-16T13:26:31.991Z,2.10
2018-07-16T13:29:00.296Z,2.50
2018-07-16T13:31:28.660Z,2.60
2018-07-16T13:33:56.965Z,2.47
2018-07-16T13:36:25.297Z,2.67
2018-07-16T13:38:53.617Z,2.40
2018-07-16T13:41:21.949Z,2.10
2018-07-16T13:43:50.280Z,2.27
2018-07-16T13:46:18.696Z,2.63
2018-07-16T13:48:47.024Z,2.40
2018-07-16T13:51:15.354Z,2.70
2018-07-16T13:53:43.680Z,2.67
2018-07-16T13:56:12.054Z,2.63
2018-07-16T13:58:40.384Z,2.30
2018-07-16T14:01:08.709Z,2.80
2018-07-16T14:03:37.085Z,2.60
2018-07-16T14:06:05.420Z,3.10
2018-07-16T14:08:33.744Z,2.77
2018-07-16T14:11:02.063Z,2.83
2018-07-16T14:13:30.397Z,2.60
2018-07-16T14:15:58.741Z,2.83
2018-07-16T14:18:27.108Z,3.17
2018-07-16T14:20:55.413Z,2.73
2018-07-16T14:23:23.760Z,2.63
2018-07-16T14:25:52.094Z,2.90
2018-07-16T14:28:20.429Z,3.33
2018-07-16T14:30:48.766Z,2.53
2018-07-16T14:33:17.134Z,2.63
2018-07-16T14:35:45.483Z,2.83
2018-07-16T14:38:13.829Z,2.70
2018-07-16T14:40:42.214Z,3.90
2018-07-16T14:43:10.625Z,1.90
2018-07-16T14:45:38.929Z,3.40
2018-07-16T14:48:07.293Z,2.37
2018-07-16T14:50:35.651Z,1.97
2018-07-16T14:53:04.008Z,1.90
2018-07-16T14:55:32.344Z,2.77
2018-07-16T14:58:00.701Z,2.10
2018-07-16T15:00:28.997Z,2.70
2018-07-16T15:02:57.309Z,2.90
2018-07-16T15:05:25.790Z,2.50
2018-07-16T15:07:54.106Z,1.63
2018-07-16T15:10:22.433Z,2.80
2018-07-16T15:12:50.749Z,1.60
2018-07-16T15:15:19.041Z,1.60
2018-07-16T15:17:47.359Z,1.50
2018-07-16T15:20:15.966Z,1.60
2018-07-16T15:22:44.222Z,1.50
2018-07-16T15:25:12.528Z,1.40
2018-07-16T15:27:40.876Z,1.70
2018-07-16T15:30:09.243Z,2.37
2018-07-16T15:32:37.544Z,2.73
2018-07-16T15:35:05.866Z,1.80
2018-07-16T15:37:34.197Z,1.67
2018-07-16T15:40:02.492Z,1.40
2018-07-16T15:42:30.797Z,1.60
2018-07-16T15:44:59.156Z,1.80
2018-07-16T15:47:27.517Z,1.47
2018-07-16T15:49:55.833Z,1.73
2018-07-16T15:52:24.115Z,2.27
2018-07-16T15:54:52.503Z,1.83
2018-07-16T15:57:20.800Z,1.57
2018-07-16T15:59:49.125Z,1.70
2018-07-16T16:02:17.421Z,2.43
2018-07-16T16:04:45.784Z,1.43
2018-07-16T16:07:14.091Z,1.70
2018-07-16T16:09:42.430Z,1.87
2018-07-16T16:12:10.741Z,1.80
2018-07-16T16:14:39.060Z,1.90
2018-07-16T16:17:07.352Z,1.80
2018-07-16T16:19:35.672Z,2.70
2018-07-16T16:22:04.076Z,2.30
2018-07-16T16:24:32.397Z,1.90
2018-07-16T16:27:00.716Z,2.50
2018-07-16T16:29:29.060Z,4.20
2018-07-16T16:31:57.361Z,2.90
2018-07-16T16:34:25.685Z,2.67
2018-07-16T16:36:54.007Z,2.80
2018-07-16T16:39:22.432Z,3.53
2018-07-16T16:41:50.724Z,2.37
2018-07-16T16:44:19.089Z,2.70
2018-07-16T16:46:47.397Z,2.77
2018-07-16T16:49:15.826Z,3.00
2018-07-16T16:51:44.074Z,2.40
2018-07-16T16:54:12.392Z,2.50
2018-07-16T16:56:40.680Z,2.53
2018-07-16T16:59:09.045Z,2.90
2018-07-16T17:01:37.340Z,2.70
2018-07-16T17:04:05.657Z,2.73
2018-07-16T17:06:33.978Z,3.23
2018-07-16T17:09:02.313Z,2.63
2018-07-16T17:11:30.626Z,2.23
2018-07-16T17:13:58.982Z,2.77
2018-07-16T17:16:27.272Z,3.77
2018-07-16T17:18:55.583Z,2.67
2018-07-16T17:21:23.920Z,2.50
2018-07-16T17:23:52.241Z,2.43
2018-07-16T17:26:20.561Z,3.20
2018-07-16T17:28:48.884Z,2.53
2018-07-16T17:31:17.136Z,2.30
2018-07-16T17:33:45.428Z,2.30
2018-07-16T17:36:13.797Z,2.50
2018-07-16T17:38:42.103Z,2.20
2018-07-16T17:41:10.427Z,2.10
2018-07-16T17:43:38.736Z,2.70
2018-07-16T17:46:07.048Z,2.67
2018-07-16T17:48:35.323Z,2.80
2018-07-16T17:51:03.641Z,2.20
2018-07-16T17:53:31.972Z,2.30
2018-07-16T17:56:00.259Z,2.47
2018-07-16T17:58:28.552Z,2.10
2018-07-16T18:00:56.912Z,2.73
2018-07-16T18:03:25.209Z,2.43
2018-07-16T18:05:53.258Z,2.20
2018-07-16T18:08:21.554Z,2.53
2018-07-16T18:10:49.881Z,2.10
2018-07-16T18:13:18.291Z,2.17
2018-07-16T18:15:46.600Z,5.23
2018-07-16T18:18:14.909Z,2.63
2018-07-16T18:20:43.259Z,2.50
2018-07-16T18:23:11.657Z,2.70
2018-07-16T18:25:39.985Z,2.73
2018-07-16T18:28:08.287Z,2.80
2018-07-16T18:30:36.644Z,2.60
2018-07-16T18:33:04.953Z,3.10
2018-07-16T18:35:33.391Z,2.87
2018-07-16T18:38:02.439Z,2.87
2018-07-16T18:40:30.758Z,2.70
2018-07-16T18:42:59.064Z,2.93
2018-07-16T18:45:27.425Z,3.23
2018-07-16T18:47:55.717Z,3.23
2018-07-16T18:50:24.033Z,4.87
2018-07-16T18:52:52.371Z,3.73
2018-07-16T18:55:20.754Z,3.70
2018-07-16T18:57:49.077Z,4.03
2018-07-16T19:00:17.410Z,3.47
2018-07-16T19:02:45.719Z,3.90
2018-07-16T19:05:14.033Z,3.70
2018-07-16T19:07:42.076Z,3.17
2018-07-16T19:10:10.429Z,3.93
2018-07-16T19:12:38.741Z,4.13
2018-07-16T19:15:13.138Z,3.97
2018-07-16T19:17:41.635Z,3.80
2018-07-16T19:20:09.998Z,4.07
2018-07-16T19:22:38.341Z,4.10
2018-07-16T19:25:06.673Z,3.80
2018-07-16T19:27:34.961Z,3.90
2018-07-16T19:30:03.305Z,4.17
2018-07-16T19:32:31.636Z,4.33
2018-07-16T19:35:00.181Z,3.97
2018-07-16T19:37:28.533Z,4.00
2018-07-16T19:39:56.841Z,3.73
2018-07-16T19:42:25.134Z,4.37
2018-07-16T19:44:53.483Z,4.23
2018-07-16T19:47:21.825Z,4.57
2018-07-16T19:49:50.152Z,5.23
2018-07-16T19:52:18.477Z,4.90
2018-07-16T19:54:46.781Z,5.30
2018-07-16T19:57:15.093Z,5.03
2018-07-16T19:59:43.414Z,5.37
2018-07-16T20:02:11.733Z,5.00
2018-07-16T20:04:40.021Z,5.30
2018-07-16T20:07:08.398Z,4.93
2018-07-16T20:09:36.759Z,4.80
2018-07-16T20:12:05.013Z,5.33
2018-07-16T20:14:33.330Z,6.53
2018-07-16T20:17:01.661Z,5.43
2018-07-16T20:19:29.993Z,4.50
2018-07-16T20:21:58.369Z,7.03
2018-07-16T20:24:26.661Z,5.07
2018-07-16T20:26:55.044Z,5.60
2018-07-16T20:29:23.298Z,5.20
2018-07-16T20:31:51.624Z,5.50
2018-07-16T20:34:19.918Z,5.53
2018-07-16T20:36:48.261Z,6.03
2018-07-16T20:39:16.591Z,5.60
2018-07-16T20:41:44.981Z,5.80
2018-07-16T20:44:13.279Z,5.33
2018-07-16T20:46:41.601Z,5.67
2018-07-16T20:49:10.202Z,5.70
2018-07-16T20:51:38.472Z,5.80
2018-07-16T20:54:07.185Z,5.30
2018-07-16T20:56:35.540Z,5.77
2018-07-16T20:59:03.893Z,5.57
2018-07-16T21:01:32.288Z,6.03
2018-07-16T21:04:00.588Z,5.80
2018-07-16T21:06:28.653Z,6.20
2018-07-16T21:08:57.075Z,6.10
2018-07-16T21:11:25.408Z,5.07
2018-07-16T21:13:53.721Z,5.97
2018-07-16T21:16:22.065Z,5.00
2018-07-16T21:18:50.361Z,4.33
2018-07-16T21:21:18.663Z,5.20
2018-07-16T21:23:46.962Z,5.30
2018-07-16T21:26:15.281Z,6.03
2018-07-16T21:28:43.563Z,5.20
2018-07-16T21:31:11.872Z,5.73
2018-07-16T21:33:40.173Z,4.57
2018-07-16T21:36:08.733Z,5.43
2018-07-16T21:38:37.056Z,5.03
2018-07-16T21:41:05.353Z,4.97
2018-07-16T21:43:33.669Z,4.80
2018-07-16T21:46:01.984Z,5.27
2018-07-16T21:48:30.361Z,5.20
2018-07-16T21:50:58.677Z,4.70
2018-07-16T21:53:27.056Z,5.60
2018-07-16T21:55:55.672Z,5.10
2018-07-16T21:58:24.022Z,5.23
2018-07-16T22:00:52.452Z,5.50
2018-07-16T22:03:20.717Z,5.70
2018-07-16T22:05:49.020Z,5.67
2018-07-16T22:08:17.370Z,5.30
2018-07-16T22:10:45.681Z,4.90
2018-07-16T22:13:14.060Z,5.70
2018-07-16T22:15:42.353Z,4.83
2018-07-16T22:18:10.670Z,4.90
2018-07-16T22:20:38.972Z,5.10
2018-07-16T22:23:07.296Z,4.97
2018-07-16T22:25:35.605Z,4.90
2018-07-16T22:28:03.987Z,4.73
2018-07-16T22:30:32.279Z,5.03
2018-07-16T22:33:00.588Z,5.17
2018-07-16T22:35:28.922Z,5.50
2018-07-16T22:37:57.241Z,5.73
2018-07-16T22:40:25.524Z,5.20
2018-07-16T22:42:53.876Z,5.90
2018-07-16T22:45:22.209Z,5.10
2018-07-16T22:47:50.529Z,5.43
2018-07-16T22:50:18.850Z,5.27
2018-07-16T22:52:47.152Z,5.10
2018-07-16T22:55:15.477Z,5.13
2018-07-16T22:57:43.817Z,5.13
2018-07-16T23:00:12.152Z,4.83
2018-07-16T23:02:40.477Z,5.07
2018-07-16T23:05:08.808Z,5.37
2018-07-16T23:07:37.119Z,5.40
2018-07-16T23:10:05.585Z,5.03
2018-07-16T23:12:33.884Z,6.53
2018-07-16T23:15:02.189Z,5.87
2018-07-16T23:17:30.501Z,5.23
2018-07-16T23:19:58.797Z,6.17
2018-07-16T23:22:27.120Z,6.23
2018-07-16T23:24:55.409Z,5.53
2018-07-16T23:27:23.766Z,5.97
2018-07-16T23:29:51.824Z,5.57
2018-07-16T23:32:20.126Z,5.70
2018-07-16T23:34:48.433Z,5.33
2018-07-16T23:37:16.761Z,6.63
2018-07-16T23:39:45.101Z,6.57
2018-07-16T23:42:13.565Z,6.77
2018-07-16T23:44:41.881Z,7.30
2018-07-16T23:47:10.509Z,6.97
2018-07-16T23:49:38.820Z,7.47
2018-07-16T23:52:07.116Z,8.67
2018-07-16T23:54:35.449Z,11.23
2018-07-16T23:57:03.753Z,7.27
2018-07-16T23:59:32.072Z,8.17
